createdAt,value
2019-02-16T00:00:51.650Z,4.10
2019-02-16T00:04:00.193Z,4.22
2019-02-16T00:07:07.072Z,4.80
2019-02-16T00:10:13.927Z,3.65
2019-02-16T00:13:20.925Z,4.22
2019-02-16T00:16:28.903Z,4.10
2019-02-16T00:19:39.867Z,4.35
2019-02-16T00:22:46.847Z,3.90
2019-02-16T00:25:53.764Z,3.85
2019-02-16T00:29:00.690Z,4.33
2019-02-16T00:32:07.609Z,4.40
2019-02-16T00:35:14.792Z,4.20
2019-02-16T00:38:21.787Z,3.80
2019-02-16T00:41:28.662Z,3.47
2019-02-16T00:44:35.513Z,4.05
2019-02-16T00:47:42.381Z,3.37
2019-02-16T00:50:49.207Z,3.52
2019-02-16T00:53:55.979Z,3.67
2019-02-16T00:57:02.802Z,2.80
2019-02-16T01:00:11.116Z,2.92
2019-02-16T01:03:17.985Z,4.40
2019-02-16T01:06:24.891Z,3.65
2019-02-16T01:09:31.936Z,4.08
2019-02-16T01:12:38.801Z,3.22
2019-02-16T01:15:45.722Z,3.70
2019-02-16T01:18:52.694Z,3.10
2019-02-16T01:21:59.600Z,4.25
2019-02-16T01:25:07.006Z,3.37
2019-02-16T01:28:15.530Z,3.10
2019-02-16T01:31:22.444Z,3.90
2019-02-16T01:34:29.329Z,2.98
2019-02-16T01:37:36.578Z,5.33
2019-02-16T01:40:43.612Z,3.80
2019-02-16T01:43:50.738Z,4.40
2019-02-16T01:46:57.570Z,3.35
2019-02-16T01:50:04.821Z,2.95
2019-02-16T01:53:11.922Z,3.65
2019-02-16T01:56:18.822Z,3.12
2019-02-16T01:59:25.637Z,2.95
2019-02-16T02:02:32.511Z,2.87
2019-02-16T02:05:39.431Z,3.62
2019-02-16T02:08:46.342Z,3.22
2019-02-16T02:11:53.439Z,2.58
2019-02-16T02:15:00.388Z,2.35
2019-02-16T02:18:07.461Z,2.25
2019-02-16T02:21:14.331Z,2.62
2019-02-16T02:24:21.188Z,2.70
2019-02-16T02:27:27.954Z,2.33
2019-02-16T02:30:34.795Z,4.87
2019-02-16T02:33:41.860Z,2.67
2019-02-16T02:36:48.710Z,2.30
2019-02-16T02:39:56.667Z,3.42
2019-02-16T02:43:03.656Z,2.50
2019-02-16T02:46:10.519Z,2.60
2019-02-16T02:49:17.406Z,3.40
2019-02-16T02:52:25.917Z,2.70
2019-02-16T02:55:32.939Z,3.87
2019-02-16T02:58:41.795Z,4.50
2019-02-16T03:01:48.423Z,2.47
2019-02-16T03:04:55.204Z,1.87
2019-02-16T03:08:04.019Z,2.62
2019-02-16T03:11:10.978Z,2.35
2019-02-16T03:14:18.050Z,3.08
2019-02-16T03:17:24.837Z,3.25
2019-02-16T03:20:31.763Z,2.45
2019-02-16T03:23:38.673Z,4.40
2019-02-16T03:27:08.289Z,2.98
2019-02-16T03:31:19.810Z,3.00
2019-02-16T03:34:53.230Z,2.83
2019-02-16T03:38:43.424Z,3.50
2019-02-16T03:41:50.766Z,2.40
2019-02-16T03:44:57.727Z,2.87
2019-02-16T03:48:04.572Z,3.25
2019-02-16T03:51:14.166Z,2.47
2019-02-16T03:54:22.857Z,3.65
2019-02-16T03:57:29.750Z,3.15
2019-02-16T04:00:36.700Z,2.20
2019-02-16T04:03:43.693Z,2.85
2019-02-16T04:06:50.568Z,2.52
2019-02-16T04:09:57.476Z,3.00
2019-02-16T04:13:04.396Z,2.52
2019-02-16T04:16:11.285Z,2.47
2019-02-16T04:19:18.289Z,2.95
2019-02-16T04:22:25.212Z,2.05
2019-02-16T04:25:32.230Z,3.40
2019-02-16T04:28:39.212Z,2.00
2019-02-16T04:31:46.062Z,2.45
2019-02-16T04:34:55.924Z,2.17
2019-02-16T04:38:02.849Z,1.90
2019-02-16T04:41:09.710Z,1.70
2019-02-16T04:44:17.444Z,2.87
2019-02-16T04:47:26.867Z,3.22
2019-02-16T04:50:33.753Z,2.30
2019-02-16T04:53:40.595Z,2.60
2019-02-16T04:56:47.639Z,1.70
2019-02-16T04:59:54.872Z,2.33
2019-02-16T05:03:02.261Z,1.98
2019-02-16T05:06:09.047Z,2.37
2019-02-16T05:09:15.947Z,2.72
2019-02-16T05:12:22.796Z,2.20
2019-02-16T05:15:31.711Z,2.17
2019-02-16T05:18:38.350Z,1.90
2019-02-16T05:21:45.176Z,2.87
2019-02-16T05:24:53.251Z,2.33
2019-02-16T05:28:00.134Z,2.87
2019-02-16T05:31:07.011Z,2.35
2019-02-16T05:34:13.811Z,2.25
2019-02-16T05:37:22.814Z,2.05
2019-02-16T05:40:29.401Z,2.70
2019-02-16T05:43:36.266Z,2.40
2019-02-16T05:46:43.629Z,2.02
2019-02-16T05:49:50.527Z,2.55
2019-02-16T05:52:57.474Z,2.30
2019-02-16T05:56:04.343Z,3.85
2019-02-16T05:59:11.413Z,4.40
2019-02-16T06:02:18.965Z,5.60
2019-02-16T06:05:25.973Z,3.80
2019-02-16T06:08:32.774Z,3.55
2019-02-16T06:11:39.661Z,3.77
2019-02-16T06:14:47.379Z,3.20
2019-02-16T06:17:54.273Z,4.85
2019-02-16T06:21:01.975Z,2.58
2019-02-16T06:24:09.027Z,3.08
2019-02-16T06:27:18.499Z,2.40
2019-02-16T06:30:25.438Z,2.58
2019-02-16T06:33:32.228Z,2.67
2019-02-16T06:36:42.981Z,2.47
2019-02-16T06:39:51.125Z,3.17
2019-02-16T06:42:58.191Z,3.70
2019-02-16T06:46:05.048Z,2.95
2019-02-16T06:49:12.337Z,2.92
2019-02-16T06:52:19.135Z,2.90
2019-02-16T06:55:31.205Z,2.22
2019-02-16T06:58:38.133Z,2.08
2019-02-16T07:01:45.227Z,2.12
2019-02-16T07:04:52.186Z,1.92
2019-02-16T07:07:59.019Z,2.30
2019-02-16T07:11:05.972Z,2.35
2019-02-16T07:14:12.795Z,2.20
2019-02-16T07:17:41.399Z,2.10
2019-02-16T07:20:48.299Z,2.37
2019-02-16T07:23:55.255Z,4.05
2019-02-16T07:27:02.230Z,2.25
2019-02-16T07:30:11.032Z,3.45
2019-02-16T07:33:17.857Z,1.90
2019-02-16T07:36:24.863Z,2.30
2019-02-16T07:39:31.880Z,2.83
2019-02-16T07:43:09.618Z,1.98
2019-02-16T07:46:32.406Z,1.92
2019-02-16T07:49:54.041Z,2.33
2019-02-16T07:53:18.430Z,2.15
2019-02-16T07:56:50.783Z,3.35
2019-02-16T08:00:10.546Z,2.40
2019-02-16T08:03:36.241Z,2.42
2019-02-16T08:06:52.354Z,2.50
2019-02-16T08:10:23.897Z,2.70
2019-02-16T08:13:45.413Z,2.20
2019-02-16T08:17:03.904Z,2.05
2019-02-16T08:20:33.166Z,2.65
2019-02-16T08:24:10.877Z,2.22
2019-02-16T08:27:31.819Z,2.45
2019-02-16T08:30:56.583Z,2.12
2019-02-16T08:34:10.534Z,2.80
2019-02-16T08:37:36.612Z,2.35
2019-02-16T08:41:17.702Z,2.08
2019-02-16T08:44:34.716Z,2.15
2019-02-16T08:48:06.336Z,2.22
2019-02-16T08:51:26.816Z,2.22
2019-02-16T08:55:08.096Z,1.90
2019-02-16T08:58:33.783Z,2.22
2019-02-16T09:02:05.317Z,1.77
2019-02-16T09:05:34.276Z,1.85
2019-02-16T09:08:58.709Z,2.05
2019-02-16T09:12:21.326Z,3.15
2019-02-16T09:15:37.805Z,3.00
2019-02-16T09:19:03.615Z,2.35
2019-02-16T09:22:38.447Z,3.08
2019-02-16T09:26:19.341Z,2.45
2019-02-16T09:29:44.727Z,3.20
2019-02-16T09:33:09.360Z,3.50
2019-02-16T09:36:48.346Z,2.90
2019-02-16T09:40:13.112Z,3.12
2019-02-16T09:43:37.787Z,3.35
2019-02-16T09:47:22.271Z,3.20
2019-02-16T09:50:41.656Z,3.17
2019-02-16T09:54:08.872Z,3.95
2019-02-16T09:57:34.708Z,3.12
2019-02-16T10:01:09.602Z,4.03
2019-02-16T10:04:41.318Z,3.87
2019-02-16T10:08:16.243Z,3.37
2019-02-16T10:11:38.010Z,3.15
2019-02-16T10:14:54.867Z,4.55
2019-02-16T10:18:21.292Z,6.80
2019-02-16T10:21:45.805Z,4.72
2019-02-16T10:25:15.851Z,3.00
2019-02-16T10:28:47.537Z,3.00
2019-02-16T10:32:22.536Z,2.52
2019-02-16T10:36:03.352Z,2.00
2019-02-16T10:39:44.271Z,2.42
2019-02-16T10:43:18.016Z,1.95
2019-02-16T10:46:46.973Z,2.37
2019-02-16T10:50:15.511Z,1.80
2019-02-16T10:53:34.516Z,2.00
2019-02-16T10:57:03.786Z,2.10
2019-02-16T11:00:32.643Z,2.20
2019-02-16T11:03:50.843Z,2.30
2019-02-16T11:07:17.306Z,1.75
2019-02-16T11:10:41.066Z,1.85
2019-02-16T11:14:13.080Z,1.70
2019-02-16T11:17:40.378Z,2.10
2019-02-16T11:21:06.137Z,1.60
2019-02-16T11:24:36.064Z,1.77
2019-02-16T11:27:58.407Z,3.08
2019-02-16T11:31:13.145Z,1.40
2019-02-16T11:34:30.085Z,1.72
2019-02-16T11:37:55.840Z,2.35
2019-02-16T11:41:16.853Z,1.70
2019-02-16T11:44:39.897Z,5.97
2019-02-16T11:48:09.588Z,2.45
2019-02-16T11:51:35.300Z,2.45
2019-02-16T11:55:04.562Z,2.90
2019-02-16T11:58:29.629Z,2.98
2019-02-16T12:01:45.952Z,2.27
2019-02-16T12:05:18.553Z,2.92
2019-02-16T12:08:36.125Z,3.08
2019-02-16T12:12:04.440Z,2.00
2019-02-16T12:15:46.733Z,2.75
2019-02-16T12:19:13.516Z,2.25
2019-02-16T12:22:37.137Z,2.90
2019-02-16T12:26:02.508Z,2.85
2019-02-16T12:29:31.736Z,1.95
2019-02-16T12:32:47.955Z,2.45
2019-02-16T12:36:13.306Z,3.08
2019-02-16T12:39:27.369Z,3.70
2019-02-16T12:42:52.872Z,3.52
2019-02-16T12:46:19.954Z,3.27
2019-02-16T12:49:53.153Z,2.75
2019-02-16T12:53:13.985Z,3.45
2019-02-16T12:56:30.453Z,3.27
2019-02-16T12:59:51.610Z,4.17
2019-02-16T13:03:36.785Z,3.00
2019-02-16T13:07:04.194Z,5.25
2019-02-16T13:10:40.202Z,3.60
2019-02-16T13:14:08.379Z,3.72
2019-02-16T13:17:39.207Z,4.00
2019-02-16T13:21:11.966Z,3.20
2019-02-16T13:24:36.911Z,6.30
2019-02-16T13:28:04.089Z,4.72
2019-02-16T13:31:39.355Z,5.10
2019-02-16T13:35:07.414Z,3.77
2019-02-16T13:38:42.432Z,5.58
2019-02-16T13:42:00.828Z,5.92
2019-02-16T13:45:26.903Z,4.45
2019-02-16T13:48:53.414Z,4.92
2019-02-16T13:52:13.881Z,4.97
2019-02-16T13:55:40.207Z,4.12
2019-02-16T13:59:18.923Z,5.25
2019-02-16T14:02:49.100Z,4.12
2019-02-16T14:06:21.637Z,5.03
2019-02-16T14:09:50.609Z,9.03
2019-02-16T14:13:19.623Z,4.12
2019-02-16T14:16:47.731Z,5.47
2019-02-16T14:19:55.104Z,4.42
2019-02-16T14:23:03.123Z,5.25
2019-02-16T14:26:11.708Z,24.70
2019-02-16T14:29:18.958Z,8.25
2019-02-16T14:32:28.178Z,92.80
2019-02-16T14:35:36.599Z,96.95
2019-02-16T14:38:53.140Z,24.32
2019-02-16T14:42:00.830Z,5.12
2019-02-16T14:45:10.519Z,5.30
2019-02-16T14:48:17.948Z,4.30
2019-02-16T14:51:28.771Z,4.85
2019-02-16T14:54:36.228Z,4.22
2019-02-16T14:57:43.743Z,4.67
2019-02-16T15:00:51.179Z,4.10
2019-02-16T15:03:58.607Z,5.55
2019-02-16T15:07:05.549Z,4.33
2019-02-16T15:10:12.979Z,4.90
2019-02-16T15:13:22.694Z,2.92
2019-02-16T15:16:31.761Z,3.90
2019-02-16T15:19:39.043Z,5.65
2019-02-16T15:22:46.649Z,4.45
2019-02-16T15:26:00.869Z,5.00
2019-02-16T15:29:03.287Z,6.62
2019-02-16T15:32:10.936Z,4.22
2019-02-16T15:35:20.401Z,3.35
2019-02-16T15:38:29.441Z,3.85
2019-02-16T15:41:39.236Z,3.95
2019-02-16T15:44:47.698Z,3.87
2019-02-16T15:47:56.243Z,3.00
2019-02-16T15:51:03.671Z,3.42
2019-02-16T15:54:11.129Z,3.55
2019-02-16T15:57:19.032Z,5.22
2019-02-16T16:00:28.094Z,3.35
2019-02-16T16:03:35.427Z,4.15
2019-02-16T16:06:43.323Z,3.72
2019-02-16T16:10:08.549Z,7.03
2019-02-16T16:13:34.808Z,7.58
2019-02-16T16:16:56.577Z,8.40
2019-02-16T16:20:27.149Z,6.15
2019-02-16T16:24:11.469Z,5.58
2019-02-16T16:27:29.019Z,7.03
2019-02-16T16:30:44.645Z,3.80
2019-02-16T16:34:16.688Z,2.85
2019-02-16T16:37:32.887Z,3.50
2019-02-16T16:40:57.799Z,3.60
2019-02-16T16:44:29.472Z,5.10
2019-02-16T16:47:57.443Z,3.42
2019-02-16T16:51:23.152Z,5.45
2019-02-16T16:54:44.678Z,4.83
2019-02-16T16:58:08.547Z,3.27
2019-02-16T17:01:37.605Z,4.42
2019-02-16T17:05:02.675Z,3.10
2019-02-16T17:08:42.806Z,4.67
2019-02-16T17:12:12.289Z,4.50
2019-02-16T17:15:38.726Z,5.03
2019-02-16T17:19:04.891Z,4.15
2019-02-16T17:22:31.093Z,4.67
2019-02-16T17:26:03.397Z,4.40
2019-02-16T17:29:32.689Z,4.45
2019-02-16T17:32:49.572Z,2.85
2019-02-16T17:36:06.093Z,3.95
2019-02-16T17:39:29.340Z,5.40
2019-02-16T17:43:04.701Z,6.12
2019-02-16T17:46:29.639Z,4.35
2019-02-16T17:49:54.634Z,5.85
2019-02-16T17:53:10.942Z,5.62
2019-02-16T17:56:46.430Z,5.85
2019-02-16T17:59:56.581Z,6.53
2019-02-16T18:03:19.919Z,4.37
2019-02-16T18:06:53.221Z,4.10
2019-02-16T18:10:23.034Z,5.87
2019-02-16T18:13:37.934Z,5.50
2019-02-16T18:17:22.265Z,4.37
2019-02-16T18:21:02.415Z,5.72
2019-02-16T18:24:35.714Z,4.65
2019-02-16T18:28:02.714Z,5.00
2019-02-16T18:31:28.215Z,4.28
2019-02-16T18:34:50.302Z,7.78
2019-02-16T18:38:05.605Z,7.53
2019-02-16T18:41:53.867Z,5.67
2019-02-16T18:45:12.339Z,6.85
2019-02-16T18:48:38.997Z,4.67
2019-02-16T18:51:53.599Z,7.40
2019-02-16T18:55:29.113Z,4.70
2019-02-16T18:58:51.114Z,7.53
2019-02-16T19:02:19.536Z,6.47
2019-02-16T19:05:48.706Z,6.67
2019-02-16T19:09:18.120Z,5.28
2019-02-16T19:12:43.808Z,4.78
2019-02-16T19:16:16.296Z,7.55
2019-02-16T19:19:40.789Z,10.50
2019-02-16T19:23:07.358Z,9.63
2019-02-16T19:26:36.839Z,10.88
2019-02-16T19:30:06.162Z,11.28
2019-02-16T19:33:42.495Z,11.35
2019-02-16T19:37:08.622Z,12.47
2019-02-16T19:40:28.406Z,8.20
2019-02-16T19:43:57.537Z,6.12
2019-02-16T19:47:29.794Z,7.42
2019-02-16T19:50:56.150Z,6.97
2019-02-16T19:54:14.009Z,5.83
2019-02-16T19:57:39.150Z,4.08
2019-02-16T20:01:17.720Z,5.35
2019-02-16T20:04:33.972Z,6.75
2019-02-16T20:08:03.084Z,5.75
2019-02-16T20:11:29.247Z,6.75
2019-02-16T20:15:02.094Z,5.95
2019-02-16T20:18:18.606Z,5.33
2019-02-16T20:21:43.931Z,5.42
2019-02-16T20:25:13.160Z,5.95
2019-02-16T20:28:45.230Z,4.47
2019-02-16T20:32:04.497Z,6.22
2019-02-16T20:35:29.762Z,6.22
2019-02-16T20:38:43.529Z,5.78
2019-02-16T20:42:01.750Z,6.85
2019-02-16T20:45:28.722Z,6.12
2019-02-16T20:48:49.116Z,6.50
2019-02-16T20:52:14.371Z,4.85
2019-02-16T20:55:32.587Z,5.20
2019-02-16T20:59:14.880Z,4.40
2019-02-16T21:02:29.869Z,4.80
2019-02-16T21:05:56.950Z,5.05
2019-02-16T21:09:21.157Z,6.08
2019-02-16T21:12:49.044Z,6.70
2019-02-16T21:16:19.213Z,4.70
2019-02-16T21:19:40.470Z,5.33
2019-02-16T21:23:05.595Z,6.25
2019-02-16T21:26:41.193Z,4.65
2019-02-16T21:30:06.383Z,5.65
2019-02-16T21:33:36.448Z,7.62
2019-02-16T21:37:04.579Z,5.70
2019-02-16T21:40:27.434Z,5.00
2019-02-16T21:44:00.895Z,5.20
2019-02-16T21:47:30.372Z,6.08
2019-02-16T21:51:03.010Z,5.95
2019-02-16T21:54:16.442Z,6.92
2019-02-16T21:57:41.835Z,6.00
2019-02-16T22:01:11.175Z,5.58
2019-02-16T22:04:26.990Z,6.58
2019-02-16T22:07:54.111Z,5.90
2019-02-16T22:11:27.708Z,5.50
2019-02-16T22:14:35.011Z,5.25
2019-02-16T22:17:42.846Z,4.78
2019-02-16T22:20:50.277Z,5.03
2019-02-16T22:23:57.982Z,6.70
2019-02-16T22:27:06.370Z,7.35
2019-02-16T22:30:14.419Z,5.97
2019-02-16T22:33:22.129Z,5.40
2019-02-16T22:36:30.236Z,5.17
2019-02-16T22:39:38.777Z,5.22
2019-02-16T22:42:47.299Z,6.35
2019-02-16T22:45:55.122Z,4.35
2019-02-16T22:49:03.517Z,5.15
2019-02-16T22:52:12.199Z,5.97
2019-02-16T22:55:19.647Z,5.28
2019-02-16T22:58:29.206Z,7.35
2019-02-16T23:01:36.322Z,6.85
2019-02-16T23:04:44.566Z,5.85
2019-02-16T23:07:54.756Z,8.25
2019-02-16T23:11:03.232Z,4.67
2019-02-16T23:14:11.771Z,5.00
2019-02-16T23:17:19.158Z,3.90
2019-02-16T23:20:29.439Z,5.33
2019-02-16T23:23:38.157Z,4.45
2019-02-16T23:26:47.567Z,4.35
2019-02-16T23:29:55.965Z,4.47
2019-02-16T23:33:03.700Z,4.10
2019-02-16T23:36:11.459Z,5.75
2019-02-16T23:39:18.976Z,3.75
2019-02-16T23:42:27.014Z,4.10
2019-02-16T23:45:34.624Z,6.17
2019-02-16T23:48:42.173Z,4.53
2019-02-16T23:51:49.641Z,6.67
2019-02-16T23:54:58.164Z,3.90
2019-02-16T23:58:07.474Z,5.00
